createdAt,value
2016-04-17T00:00:35.599Z,0
2016-04-17T00:01:35.648Z,0
2016-04-17T00:02:35.651Z,0
2016-04-17T00:03:35.685Z,0
2016-04-17T00:04:35.719Z,0
2016-04-17T00:05:35.754Z,0
2016-04-17T00:06:35.771Z,0
2016-04-17T00:07:35.821Z,0
2016-04-17T00:08:35.823Z,0
2016-04-17T00:09:35.983Z,0
2016-04-17T00:10:35.892Z,0
2016-04-17T00:11:35.895Z,0
2016-04-17T00:12:35.929Z,0
2016-04-17T00:13:35.962Z,0
2016-04-17T00:14:35.995Z,0
2016-04-17T00:15:36.014Z,0
2016-04-17T00:16:36.033Z,0
2016-04-17T00:17:35.911Z,0
2016-04-17T00:18:36.100Z,0
2016-04-17T00:19:36.134Z,0
2016-04-17T00:20:36.152Z,0
2016-04-17T00:21:36.203Z,0
2016-04-17T00:22:36.220Z,0
2016-04-17T00:23:36.255Z,0
2016-04-17T00:24:36.289Z,0
2016-04-17T00:25:36.119Z,0
2016-04-17T00:26:36.325Z,0
2016-04-17T00:27:36.358Z,0
2016-04-17T00:28:36.377Z,0
2016-04-17T00:29:36.395Z,0
2016-04-17T00:30:36.429Z,0
2016-04-17T00:31:36.448Z,0
2016-04-17T00:32:36.466Z,0
2016-04-17T00:33:36.546Z,0
2016-04-17T00:34:36.534Z,0
2016-04-17T00:35:36.552Z,0
2016-04-17T00:36:36.587Z,0
2016-04-17T00:37:36.668Z,0
2016-04-17T00:38:36.732Z,0
2016-04-17T00:39:37.345Z,0
2016-04-17T00:40:36.706Z,0
2016-04-17T00:41:36.740Z,0
2016-04-17T00:42:36.774Z,0
2016-04-17T00:43:36.777Z,0
2016-04-17T00:44:36.811Z,0
2016-04-17T00:45:36.845Z,0
2016-04-17T00:46:36.894Z,0
2016-04-17T00:47:36.912Z,0
2016-04-17T00:48:36.947Z,0
2016-04-17T00:49:36.965Z,0
2016-04-17T00:50:36.984Z,0
2016-04-17T00:51:37.033Z,0
2016-04-17T00:52:37.020Z,0
2016-04-17T00:53:37.070Z,0
2016-04-17T00:54:37.120Z,0
2016-04-17T00:55:37.122Z,0
2016-04-17T00:56:37.141Z,0
2016-04-17T00:57:37.189Z,0
2016-04-17T00:58:37.239Z,0
2016-04-17T00:59:37.226Z,0
2016-04-17T01:00:37.245Z,0
2016-04-17T01:01:37.294Z,0
2016-04-17T01:02:37.328Z,0
2016-04-17T01:03:37.346Z,0
2016-04-17T01:04:37.412Z,0
2016-04-17T01:05:37.399Z,0
2016-04-17T01:06:37.418Z,0
2016-04-17T01:07:37.451Z,0
2016-04-17T01:08:37.485Z,0
2016-04-17T01:09:37.721Z,0
2016-04-17T01:10:37.537Z,0
2016-04-17T01:11:37.556Z,0
2016-04-17T01:12:37.590Z,0
2016-04-17T01:13:37.608Z,0
2016-04-17T01:14:37.657Z,0
2016-04-17T01:15:37.675Z,0
2016-04-17T01:16:37.740Z,0
2016-04-17T01:17:37.728Z,0
2016-04-17T01:18:37.746Z,0
2016-04-17T01:19:37.781Z,0
2016-04-17T01:20:37.814Z,0
2016-04-17T01:21:37.864Z,0
2016-04-17T01:22:37.897Z,0
2016-04-17T01:23:37.900Z,0
2016-04-17T01:24:38.387Z,0
2016-04-17T01:25:37.953Z,0
2016-04-17T01:26:37.986Z,0
2016-04-17T01:27:38.020Z,0
2016-04-17T01:28:38.069Z,0
2016-04-17T01:29:38.072Z,0
2016-04-17T01:30:38.091Z,0
2016-04-17T01:31:38.125Z,0
2016-04-17T01:32:38.143Z,0
2016-04-17T01:33:38.193Z,0
2016-04-17T01:34:38.210Z,0
2016-04-17T01:35:38.230Z,0
2016-04-17T01:36:38.294Z,0
2016-04-17T01:37:38.297Z,0
2016-04-17T01:38:38.299Z,0
2016-04-17T01:39:38.318Z,0
2016-04-17T01:40:38.367Z,0
2016-04-17T01:41:38.387Z,0
2016-04-17T01:42:38.404Z,0
2016-04-17T01:43:38.454Z,0
2016-04-17T01:44:38.503Z,0
2016-04-17T01:45:38.506Z,0
2016-04-17T01:46:38.556Z,0
2016-04-17T01:47:38.574Z,0
2016-04-17T01:48:38.592Z,0
2016-04-17T01:49:38.611Z,0
2016-04-17T01:50:38.691Z,0
2016-04-17T01:51:38.694Z,0
2016-04-17T01:52:38.697Z,0
2016-04-17T01:53:38.715Z,0
2016-04-17T01:54:38.843Z,0
2016-04-17T01:55:38.783Z,0
2016-04-17T01:56:38.802Z,0
2016-04-17T01:57:38.850Z,0
2016-04-17T01:58:38.853Z,0
2016-04-17T01:59:38.935Z,0
2016-04-17T02:00:38.906Z,0
2016-04-17T02:01:38.940Z,0
2016-04-17T02:02:39.021Z,0
2016-04-17T02:03:39.007Z,0
2016-04-17T02:04:39.027Z,0
2016-04-17T02:05:38.326Z,0
2016-04-17T02:06:39.079Z,0
2016-04-17T02:07:39.112Z,0
2016-04-17T02:08:39.130Z,0
2016-04-17T02:09:39.024Z,0
2016-04-17T02:10:39.230Z,0
2016-04-17T02:11:39.217Z,0
2016-04-17T02:12:39.235Z,0
2016-04-17T02:13:39.253Z,0
2016-04-17T02:14:39.303Z,0
2016-04-17T02:15:39.320Z,0
2016-04-17T02:16:39.340Z,0
2016-04-17T02:17:39.389Z,0
2016-04-17T02:18:39.407Z,0
2016-04-17T02:19:39.441Z,0
2016-04-17T02:20:39.459Z,0
2016-04-17T02:21:39.514Z,0
2016-04-17T02:22:39.533Z,0
2016-04-17T02:23:39.535Z,0
2016-04-17T02:24:39.585Z,0
2016-04-17T02:25:39.619Z,0
2016-04-17T02:26:39.621Z,0
2016-04-17T02:27:39.655Z,0
2016-04-17T02:28:39.689Z,0
2016-04-17T02:29:39.598Z,0
2016-04-17T02:30:39.726Z,0
2016-04-17T02:31:39.760Z,0
2016-04-17T02:32:39.794Z,0
2016-04-17T02:33:39.813Z,0
2016-04-17T02:34:39.846Z,0
2016-04-17T02:35:39.896Z,0
2016-04-17T02:36:39.929Z,0
2016-04-17T02:37:39.948Z,0
2016-04-17T02:38:39.951Z,0
2016-04-17T02:39:39.985Z,0
2016-04-17T02:40:40.018Z,0
2016-04-17T02:41:40.037Z,0
2016-04-17T02:42:40.086Z,0
2016-04-17T02:43:40.104Z,0
2016-04-17T02:44:40.123Z,0
2016-04-17T02:45:40.157Z,0
2016-04-17T02:46:40.190Z,0
2016-04-17T02:47:40.209Z,0
2016-04-17T02:48:40.086Z,0
2016-04-17T02:49:40.106Z,0
2016-04-17T02:50:40.295Z,0
2016-04-17T02:51:40.329Z,0
2016-04-17T02:52:40.347Z,0
2016-04-17T02:53:40.397Z,0
2016-04-17T02:54:40.399Z,0
2016-04-17T02:55:40.434Z,0
2016-04-17T02:56:40.467Z,0
2016-04-17T02:57:40.533Z,0
2016-04-17T02:58:40.535Z,0
2016-04-17T02:59:40.569Z,0
2016-04-17T03:00:40.603Z,0
2016-04-17T03:01:40.590Z,0
2016-04-17T03:02:40.640Z,0
2016-04-17T03:03:40.705Z,0
2016-04-17T03:04:40.677Z,0
2016-04-17T03:05:40.710Z,0
2016-04-17T03:06:40.744Z,0
2016-04-17T03:07:40.763Z,0
2016-04-17T03:08:40.796Z,0
2016-04-17T03:09:40.815Z,0
2016-04-17T03:10:40.849Z,0
2016-04-17T03:11:40.867Z,0
2016-04-17T03:12:40.885Z,0
2016-04-17T03:13:40.951Z,0
2016-04-17T03:14:40.938Z,0
2016-04-17T03:15:41.003Z,0
2016-04-17T03:16:41.021Z,0
2016-04-17T03:17:41.070Z,0
2016-04-17T03:18:41.073Z,0
2016-04-17T03:19:41.108Z,0
2016-04-17T03:20:41.110Z,0
2016-04-17T03:21:41.144Z,0
2016-04-17T03:22:41.194Z,0
2016-04-17T03:23:41.181Z,0
2016-04-17T03:24:41.215Z,0
2016-04-17T03:25:41.264Z,0
2016-04-17T03:26:41.283Z,0
2016-04-17T03:27:41.300Z,0
2016-04-17T03:28:41.335Z,0
2016-04-17T03:29:41.368Z,0
2016-04-17T03:30:41.388Z,0
2016-04-17T03:31:41.436Z,0
2016-04-17T03:32:41.471Z,0
2016-04-17T03:33:41.473Z,0
2016-04-17T03:34:41.491Z,0
2016-04-17T03:35:41.540Z,0
2016-04-17T03:36:41.544Z,0
2016-04-17T03:37:41.624Z,0
2016-04-17T03:38:41.612Z,0
2016-04-17T03:39:41.661Z,0
2016-04-17T03:40:41.664Z,0
2016-04-17T03:41:41.698Z,0
2016-04-17T03:42:41.732Z,0
2016-04-17T03:43:41.750Z,0
2016-04-17T03:44:41.768Z,0
2016-04-17T03:45:41.803Z,0
2016-04-17T03:46:41.851Z,0
2016-04-17T03:47:41.854Z,0
2016-04-17T03:48:41.904Z,0
2016-04-17T03:49:41.923Z,0
2016-04-17T03:50:41.942Z,0
2016-04-17T03:51:41.990Z,0
2016-04-17T03:52:42.008Z,0
2016-04-17T03:53:42.028Z,0
2016-04-17T03:54:42.061Z,0
2016-04-17T03:55:42.095Z,0
2016-04-17T03:56:42.113Z,0
2016-04-17T03:57:42.131Z,0
2016-04-17T03:58:42.166Z,0
2016-04-17T03:59:42.199Z,0
2016-04-17T04:00:42.218Z,0
2016-04-17T04:01:42.283Z,0
2016-04-17T04:02:42.302Z,0
2016-04-17T04:03:42.304Z,0
2016-04-17T04:04:42.322Z,0
2016-04-17T04:05:42.435Z,0
2016-04-17T04:06:42.391Z,0
2016-04-17T04:07:42.424Z,0
2016-04-17T04:08:42.490Z,0
2016-04-17T04:09:42.460Z,0
2016-04-17T04:10:42.495Z,0
2016-04-17T04:11:42.543Z,0
2016-04-17T04:12:42.782Z,0
2016-04-17T04:13:42.956Z,0
2016-04-17T04:14:42.834Z,0
2016-04-17T04:15:42.773Z,0
2016-04-17T04:16:42.996Z,0
2016-04-17T04:17:42.935Z,0
2016-04-17T04:18:42.907Z,0
2016-04-17T04:19:42.972Z,0
2016-04-17T04:20:42.928Z,0
2016-04-17T04:21:42.930Z,0
2016-04-17T04:22:42.917Z,0
2016-04-17T04:23:42.951Z,0
2016-04-17T04:24:42.954Z,0
2016-04-17T04:25:42.956Z,0
2016-04-17T04:26:42.975Z,0
2016-04-17T04:27:42.961Z,0
2016-04-17T04:28:42.996Z,0
2016-04-17T04:29:43.030Z,0
2016-04-17T04:30:43.049Z,0
2016-04-17T04:31:43.067Z,0
2016-04-17T04:32:43.100Z,0
2016-04-17T04:33:43.119Z,0
2016-04-17T04:34:43.138Z,0
2016-04-17T04:35:43.188Z,0
2016-04-17T04:36:43.205Z,0
2016-04-17T04:37:43.224Z,0
2016-04-17T04:38:43.288Z,0
2016-04-17T04:39:43.323Z,0
2016-04-17T04:40:43.326Z,0
2016-04-17T04:41:43.359Z,0
2016-04-17T04:42:43.377Z,0
2016-04-17T04:43:43.412Z,0
2016-04-17T04:44:43.429Z,0
2016-04-17T04:45:43.448Z,0
2016-04-17T04:46:43.466Z,0
2016-04-17T04:47:43.532Z,0
2016-04-17T04:48:43.534Z,0
2016-04-17T04:49:42.990Z,0
2016-04-17T04:50:43.586Z,0
2016-04-17T04:51:43.636Z,0
2016-04-17T04:52:43.639Z,0
2016-04-17T04:53:43.704Z,0
2016-04-17T04:54:43.706Z,0
2016-04-17T04:55:43.741Z,0
2016-04-17T04:56:43.774Z,0
2016-04-17T04:57:43.808Z,0
2016-04-17T04:58:43.811Z,0
2016-04-17T04:59:43.844Z,0
2016-04-17T05:00:43.864Z,0
2016-04-17T05:01:43.913Z,0
2016-04-17T05:02:43.931Z,0
2016-04-17T05:03:43.965Z,0
2016-04-17T05:04:43.983Z,0
2016-04-17T05:05:44.018Z,0
2016-04-17T05:06:44.036Z,0
2016-04-17T05:07:44.101Z,0
2016-04-17T05:08:44.088Z,0
2016-04-17T05:09:44.121Z,0
2016-04-17T05:10:44.313Z,0
2016-04-17T05:11:44.174Z,0
2016-04-17T05:12:44.208Z,0
2016-04-17T05:13:44.257Z,0
2016-04-17T05:14:44.338Z,0
2016-04-17T05:15:44.278Z,0
2016-04-17T05:16:44.204Z,0
2016-04-17T05:17:44.346Z,0
2016-04-17T05:18:44.381Z,0
2016-04-17T05:19:44.383Z,0
2016-04-17T05:20:44.417Z,0
2016-04-17T05:21:44.435Z,0
2016-04-17T05:22:44.485Z,0
2016-04-17T05:23:44.503Z,0
2016-04-17T05:24:44.553Z,0
2016-04-17T05:25:44.336Z,0
2016-04-17T05:26:44.574Z,0
2016-04-17T05:27:44.655Z,0
2016-04-17T05:28:44.673Z,4
2016-04-17T05:29:44.660Z,4
2016-04-17T05:30:44.694Z,0
2016-04-17T05:31:44.588Z,0
2016-04-17T05:32:44.746Z,0
2016-04-17T05:33:44.764Z,0
2016-04-17T05:34:44.799Z,4
2016-04-17T05:35:44.833Z,4
2016-04-17T05:36:44.866Z,4
2016-04-17T05:37:44.885Z,4
2016-04-17T05:38:44.949Z,0
2016-04-17T05:39:44.952Z,0
2016-04-17T05:40:45.065Z,0
2016-04-17T05:41:44.990Z,0
2016-04-17T05:42:45.023Z,0
2016-04-17T05:43:45.073Z,0
2016-04-17T05:44:45.076Z,4
2016-04-17T05:45:45.126Z,4
2016-04-17T05:46:45.159Z,4
2016-04-17T05:47:45.177Z,4
2016-04-17T05:48:45.212Z,0
2016-04-17T05:49:45.214Z,4
2016-04-17T05:50:45.279Z,4
2016-04-17T05:51:45.298Z,4
2016-04-17T05:52:45.332Z,4
2016-04-17T05:53:45.334Z,4
2016-04-17T05:54:45.353Z,4
2016-04-17T05:55:45.417Z,4
2016-04-17T05:56:45.436Z,0
2016-04-17T05:57:45.453Z,4
2016-04-17T05:58:45.661Z,4
2016-04-17T05:59:45.663Z,4
2016-04-17T06:00:45.791Z,4
2016-04-17T06:01:45.808Z,4
2016-04-17T06:02:45.890Z,4
2016-04-17T06:03:45.851Z,4
2016-04-17T06:04:45.862Z,4
2016-04-17T06:05:45.905Z,4
2016-04-17T06:06:45.932Z,4
2016-04-17T06:07:46.021Z,4
2016-04-17T06:08:46.071Z,8
2016-04-17T06:09:46.104Z,8
2016-04-17T06:10:46.262Z,8
2016-04-17T06:11:46.107Z,8
2016-04-17T06:12:46.139Z,8
2016-04-17T06:13:46.194Z,8
2016-04-17T06:14:46.203Z,8
2016-04-17T06:15:46.211Z,8
2016-04-17T06:16:46.251Z,8
2016-04-17T06:17:46.321Z,8
2016-04-17T06:18:46.325Z,8
2016-04-17T06:19:46.346Z,8
2016-04-17T06:20:46.381Z,8
2016-04-17T06:21:46.403Z,4
2016-04-17T06:22:46.422Z,4
2016-04-17T06:23:46.472Z,4
2016-04-17T06:24:46.507Z,4
2016-04-17T06:25:46.573Z,8
2016-04-17T06:26:46.546Z,8
2016-04-17T06:27:46.596Z,8
2016-04-17T06:28:46.598Z,4
2016-04-17T06:29:46.633Z,4
2016-04-17T06:30:46.713Z,8
2016-04-17T06:31:46.700Z,4
2016-04-17T06:32:46.734Z,4
2016-04-17T06:33:46.736Z,4
2016-04-17T06:34:46.771Z,4
2016-04-17T06:35:46.805Z,4
2016-04-17T06:36:46.823Z,4
2016-04-17T06:37:46.841Z,4
2016-04-17T06:38:46.172Z,4
2016-04-17T06:39:46.909Z,4
2016-04-17T06:40:46.960Z,4
2016-04-17T06:41:46.946Z,4
2016-04-17T06:42:46.979Z,4
2016-04-17T06:43:47.030Z,4
2016-04-17T06:44:47.048Z,4
2016-04-17T06:45:46.926Z,4
2016-04-17T06:46:47.101Z,4
2016-04-17T06:47:47.165Z,4
2016-04-17T06:48:47.184Z,4
2016-04-17T06:49:47.187Z,4
2016-04-17T06:50:47.220Z,4
2016-04-17T06:51:47.270Z,4
2016-04-17T06:52:47.273Z,4
2016-04-17T06:53:47.290Z,4
2016-04-17T06:54:47.325Z,4
2016-04-17T06:55:47.295Z,4
2016-04-17T06:56:47.377Z,4
2016-04-17T06:57:47.427Z,4
2016-04-17T06:58:47.444Z,4
2016-04-17T06:59:47.448Z,4
2016-04-17T07:00:47.497Z,4
2016-04-17T07:01:47.500Z,4
2016-04-17T07:02:47.534Z,4
2016-04-17T07:03:47.599Z,4
2016-04-17T07:04:47.602Z,4
2016-04-17T07:05:47.667Z,8
2016-04-17T07:06:47.638Z,4
2016-04-17T07:07:47.703Z,4
2016-04-17T07:08:47.722Z,4
2016-04-17T07:09:47.740Z,4
2016-04-17T07:10:47.790Z,4
2016-04-17T07:11:47.792Z,4
2016-04-17T07:12:47.827Z,4
2016-04-17T07:13:47.829Z,4
2016-04-17T07:14:47.862Z,8
2016-04-17T07:15:47.928Z,4
2016-04-17T07:16:47.931Z,8
2016-04-17T07:17:47.948Z,4
2016-04-17T07:18:47.983Z,8
2016-04-17T07:19:48.064Z,8
2016-04-17T07:20:48.035Z,8
2016-04-17T07:21:48.069Z,4
2016-04-17T07:22:48.104Z,4
2016-04-17T07:23:48.137Z,4
2016-04-17T07:24:48.140Z,8
2016-04-17T07:25:48.205Z,8
2016-04-17T07:26:48.208Z,8
2016-04-17T07:27:48.226Z,8
2016-04-17T07:28:48.245Z,4
2016-04-17T07:29:48.278Z,4
2016-04-17T07:30:48.312Z,4
2016-04-17T07:31:48.346Z,8
2016-04-17T07:32:48.349Z,4
2016-04-17T07:33:48.383Z,4
2016-04-17T07:34:48.417Z,8
2016-04-17T07:35:48.450Z,8
2016-04-17T07:36:48.469Z,8
2016-04-17T07:37:48.488Z,8
2016-04-17T07:38:48.537Z,8
2016-04-17T07:39:48.555Z,8
2016-04-17T07:40:48.605Z,12
2016-04-17T07:41:48.638Z,12
2016-04-17T07:42:48.641Z,12
2016-04-17T07:43:49.050Z,8
2016-04-17T07:44:48.960Z,8
2016-04-17T07:45:49.009Z,8
2016-04-17T07:46:49.012Z,8
2016-04-17T07:47:49.045Z,8
2016-04-17T07:48:48.954Z,8
2016-04-17T07:49:49.004Z,8
2016-04-17T07:50:48.959Z,8
2016-04-17T07:51:49.040Z,8
2016-04-17T07:52:49.324Z,12
2016-04-17T07:53:49.015Z,12
2016-04-17T07:54:49.034Z,12
2016-04-17T07:55:49.004Z,12
2016-04-17T07:56:49.023Z,12
2016-04-17T07:57:49.072Z,8
2016-04-17T07:58:49.075Z,8
2016-04-17T07:59:49.092Z,12
2016-04-17T08:00:49.143Z,8
2016-04-17T08:01:49.161Z,8
2016-04-17T08:02:49.180Z,12
2016-04-17T08:03:49.244Z,8
2016-04-17T08:04:49.231Z,12
2016-04-17T08:05:49.266Z,8
2016-04-17T08:06:49.315Z,8
2016-04-17T08:07:49.380Z,8
2016-04-17T08:08:49.399Z,8
2016-04-17T08:09:49.370Z,8
2016-04-17T08:10:49.405Z,8
2016-04-17T08:11:49.422Z,8
2016-04-17T08:12:49.456Z,8
2016-04-17T08:13:49.537Z,8
2016-04-17T08:14:49.524Z,12
2016-04-17T08:15:49.543Z,12
2016-04-17T08:16:49.593Z,12
2016-04-17T08:17:49.626Z,12
2016-04-17T08:18:49.659Z,16
2016-04-17T08:19:49.646Z,16
2016-04-17T08:20:49.696Z,12
2016-04-17T08:21:49.714Z,20
2016-04-17T08:22:49.749Z,20
2016-04-17T08:23:49.751Z,20
2016-04-17T08:24:49.817Z,20
2016-04-17T08:25:49.819Z,20
2016-04-17T08:26:49.869Z,16
2016-04-17T08:27:49.887Z,16
2016-04-17T08:28:49.906Z,12
2016-04-17T08:29:49.956Z,12
2016-04-17T08:30:49.989Z,12
2016-04-17T08:31:50.008Z,12
2016-04-17T08:32:50.056Z,8
2016-04-17T08:33:50.044Z,16
2016-04-17T08:34:50.078Z,12
2016-04-17T08:35:50.111Z,12
2016-04-17T08:36:50.130Z,16
2016-04-17T08:37:50.149Z,20
2016-04-17T08:38:50.229Z,16
2016-04-17T08:39:50.232Z,20
2016-04-17T08:40:50.250Z,20
2016-04-17T08:41:50.269Z,32
2016-04-17T08:42:50.319Z,32
2016-04-17T08:43:50.337Z,32
2016-04-17T08:44:50.386Z,28
2016-04-17T08:45:50.357Z,28
2016-04-17T08:46:50.391Z,32
2016-04-17T08:47:50.426Z,28
2016-04-17T08:48:50.444Z,24
2016-04-17T08:49:50.477Z,24
2016-04-17T08:50:50.512Z,28
2016-04-17T08:51:50.515Z,24
2016-04-17T08:52:50.580Z,28
2016-04-17T08:53:50.598Z,28
2016-04-17T08:54:50.647Z,28
2016-04-17T08:55:50.634Z,28
2016-04-17T08:56:50.668Z,32
2016-04-17T08:57:50.703Z,28
2016-04-17T08:58:50.737Z,28
2016-04-17T08:59:50.739Z,28
2016-04-17T09:00:50.804Z,32
2016-04-17T09:01:50.839Z,24
2016-04-17T09:02:50.856Z,28
2016-04-17T09:03:50.890Z,24
2016-04-17T09:04:50.892Z,24
2016-04-17T09:05:50.911Z,20
2016-04-17T09:06:50.945Z,24
2016-04-17T09:07:50.964Z,36
2016-04-17T09:08:51.028Z,20
2016-04-17T09:09:51.031Z,24
2016-04-17T09:10:51.065Z,28
2016-04-17T09:11:51.084Z,24
2016-04-17T09:12:51.118Z,24
2016-04-17T09:13:51.152Z,32
2016-04-17T09:14:51.185Z,24
2016-04-17T09:15:51.236Z,36
2016-04-17T09:16:51.222Z,60
2016-04-17T09:17:51.272Z,32
2016-04-17T09:18:51.305Z,48
2016-04-17T09:19:51.308Z,28
2016-04-17T09:20:51.343Z,40
2016-04-17T09:21:51.251Z,28
2016-04-17T09:22:51.410Z,36
2016-04-17T09:23:51.428Z,40
2016-04-17T09:24:51.463Z,28
2016-04-17T09:25:51.543Z,44
2016-04-17T09:26:51.499Z,36
2016-04-17T09:27:51.549Z,24
2016-04-17T09:28:51.755Z,60
2016-04-17T09:29:51.757Z,60
2016-04-17T09:30:51.885Z,60
2016-04-17T09:31:51.934Z,76
2016-04-17T09:32:51.859Z,64
2016-04-17T09:33:51.909Z,72
2016-04-17T09:34:51.849Z,80
2016-04-17T09:35:51.914Z,36
2016-04-17T09:36:51.917Z,64
2016-04-17T09:37:51.904Z,76
2016-04-17T09:38:51.939Z,80
2016-04-17T09:39:51.987Z,80
2016-04-17T09:40:51.975Z,72
2016-04-17T09:41:51.978Z,56
2016-04-17T09:42:51.949Z,76
2016-04-17T09:43:51.951Z,84
2016-04-17T09:44:52.000Z,72
2016-04-17T09:45:52.003Z,72
2016-04-17T09:46:52.053Z,80
2016-04-17T09:47:52.087Z,80
2016-04-17T09:48:52.091Z,88
2016-04-17T09:49:52.124Z,84
2016-04-17T09:50:52.158Z,80
2016-04-17T09:51:52.192Z,72
2016-04-17T09:52:52.241Z,72
2016-04-17T09:53:52.244Z,80
2016-04-17T09:54:52.263Z,80
2016-04-17T09:55:52.280Z,84
2016-04-17T09:56:52.330Z,68
2016-04-17T09:57:52.365Z,76
2016-04-17T09:58:52.382Z,24
2016-04-17T09:59:52.400Z,80
2016-04-17T10:00:52.434Z,68
2016-04-17T10:01:52.437Z,72
2016-04-17T10:02:52.487Z,64
2016-04-17T10:03:52.521Z,80
2016-04-17T10:04:52.555Z,84
2016-04-17T10:05:52.573Z,68
2016-04-17T10:06:52.592Z,64
2016-04-17T10:07:52.642Z,16
2016-04-17T10:08:52.659Z,64
2016-04-17T10:09:52.692Z,20
2016-04-17T10:10:52.728Z,32
2016-04-17T10:11:52.823Z,28
2016-04-17T10:12:52.780Z,44
2016-04-17T10:13:52.797Z,80
2016-04-17T10:14:52.816Z,68
2016-04-17T10:15:52.833Z,24
2016-04-17T10:16:52.869Z,24
2016-04-17T10:17:52.933Z,68
2016-04-17T10:18:52.764Z,64
2016-04-17T10:19:52.939Z,20
2016-04-17T10:20:53.019Z,32
2016-04-17T10:21:53.069Z,80
2016-04-17T10:22:53.071Z,44
2016-04-17T10:23:53.059Z,20
2016-04-17T10:24:53.077Z,40
2016-04-17T10:25:53.110Z,68
2016-04-17T10:26:53.332Z,16
2016-04-17T10:27:53.179Z,28
2016-04-17T10:28:53.057Z,40
2016-04-17T10:29:53.247Z,36
2016-04-17T10:30:53.265Z,32
2016-04-17T10:31:53.299Z,32
2016-04-17T10:32:53.317Z,36
2016-04-17T10:33:53.336Z,32
2016-04-17T10:34:53.370Z,32
2016-04-17T10:35:53.372Z,28
2016-04-17T10:36:53.437Z,24
2016-04-17T10:37:53.456Z,28
2016-04-17T10:38:53.475Z,32
2016-04-17T10:39:53.509Z,32
2016-04-17T10:40:53.526Z,32
2016-04-17T10:41:53.795Z,32
2016-04-17T10:42:53.563Z,28
2016-04-17T10:43:53.597Z,32
2016-04-17T10:44:53.631Z,52
2016-04-17T10:45:53.664Z,28
2016-04-17T10:46:53.684Z,32
2016-04-17T10:47:53.716Z,64
2016-04-17T10:48:53.752Z,60
2016-04-17T10:49:53.786Z,40
2016-04-17T10:50:53.803Z,56
2016-04-17T10:51:53.838Z,40
2016-04-17T10:52:53.856Z,20
2016-04-17T10:53:53.874Z,28
2016-04-17T10:54:53.189Z,20
2016-04-17T10:55:53.941Z,24
2016-04-17T10:56:53.976Z,20
2016-04-17T10:57:54.009Z,24
2016-04-17T10:58:54.028Z,56
2016-04-17T10:59:54.047Z,40
2016-04-17T11:00:54.080Z,48
2016-04-17T11:01:54.099Z,56
2016-04-17T11:02:54.132Z,40
2016-04-17T11:03:54.151Z,56
2016-04-17T11:04:54.185Z,68
2016-04-17T11:05:54.218Z,64
2016-04-17T11:06:54.237Z,44
2016-04-17T11:07:54.286Z,64
2016-04-17T11:08:53.555Z,48
2016-04-17T11:09:54.308Z,68
2016-04-17T11:10:54.372Z,56
2016-04-17T11:11:54.375Z,56
2016-04-17T11:12:54.378Z,56
2016-04-17T11:13:54.428Z,60
2016-04-17T11:14:54.478Z,48
2016-04-17T11:15:54.527Z,60
2016-04-17T11:16:54.514Z,56
2016-04-17T11:17:54.548Z,56
2016-04-17T11:18:54.597Z,44
2016-04-17T11:19:54.631Z,48
2016-04-17T11:20:54.619Z,60
2016-04-17T11:21:54.669Z,48
2016-04-17T11:22:54.702Z,24
2016-04-17T11:23:54.735Z,20
2016-04-17T11:24:54.723Z,28
2016-04-17T11:25:54.772Z,32
2016-04-17T11:26:54.807Z,12
2016-04-17T11:27:54.809Z,8
2016-04-17T11:28:54.859Z,28
2016-04-17T11:29:54.893Z,48
2016-04-17T11:30:54.957Z,36
2016-04-17T11:31:54.929Z,32
2016-04-17T11:32:54.963Z,36
2016-04-17T11:33:54.981Z,48
2016-04-17T11:34:55.001Z,52
2016-04-17T11:35:55.049Z,48
2016-04-17T11:36:55.067Z,56
2016-04-17T11:37:55.101Z,48
2016-04-17T11:38:55.104Z,52
2016-04-17T11:39:55.139Z,40
2016-04-17T11:40:55.203Z,36
2016-04-17T11:41:55.222Z,32
2016-04-17T11:42:55.272Z,28
2016-04-17T11:43:55.275Z,28
2016-04-17T11:44:55.309Z,24
2016-04-17T11:45:55.358Z,28
2016-04-17T11:46:55.329Z,28
2016-04-17T11:47:55.395Z,24
2016-04-17T11:48:55.413Z,28
2016-04-17T11:49:55.431Z,28
2016-04-17T11:50:55.480Z,28
2016-04-17T11:51:55.483Z,20
2016-04-17T11:52:55.501Z,24
2016-04-17T11:53:55.566Z,24
2016-04-17T11:54:55.632Z,24
2016-04-17T11:55:55.619Z,28
2016-04-17T11:56:55.621Z,36
2016-04-17T11:57:55.624Z,28
2016-04-17T11:58:55.658Z,40
2016-04-17T11:59:55.693Z,32
2016-04-17T12:00:55.727Z,24
2016-04-17T12:01:55.776Z,16
2016-04-17T12:02:55.779Z,16
2016-04-17T12:03:55.797Z,28
2016-04-17T12:04:55.862Z,28
2016-04-17T12:05:55.849Z,20
2016-04-17T12:06:55.899Z,16
2016-04-17T12:07:55.745Z,16
2016-04-17T12:08:55.967Z,16
2016-04-17T12:09:55.984Z,16
2016-04-17T12:10:55.987Z,40
2016-04-17T12:11:56.209Z,16
2016-04-17T12:12:56.056Z,12
2016-04-17T12:13:56.089Z,16
2016-04-17T12:14:56.108Z,16
2016-04-17T12:15:56.141Z,16
2016-04-17T12:16:56.175Z,12
2016-04-17T12:17:56.225Z,16
2016-04-17T12:18:56.274Z,24
2016-04-17T12:19:56.246Z,36
2016-04-17T12:20:56.295Z,28
2016-04-17T12:21:56.298Z,28
2016-04-17T12:22:56.316Z,28
2016-04-17T12:23:56.350Z,24
2016-04-17T12:24:56.399Z,48
2016-04-17T12:25:56.419Z,36
2016-04-17T12:26:56.703Z,44
2016-04-17T12:27:56.471Z,20
2016-04-17T12:28:56.521Z,40
2016-04-17T12:29:56.523Z,28
2016-04-17T12:30:56.557Z,44
2016-04-17T12:31:56.575Z,20
2016-04-17T12:32:56.657Z,28
2016-04-17T12:33:56.643Z,12
2016-04-17T12:34:56.662Z,24
2016-04-17T12:35:56.680Z,24
2016-04-17T12:36:56.713Z,16
2016-04-17T12:37:56.748Z,12
2016-04-17T12:38:56.782Z,16
2016-04-17T12:39:56.831Z,12
2016-04-17T12:40:56.818Z,12
2016-04-17T12:41:56.837Z,12
2016-04-17T12:42:56.933Z,12
2016-04-17T12:43:56.935Z,20
2016-04-17T12:44:56.922Z,28
2016-04-17T12:45:56.956Z,36
2016-04-17T12:46:56.975Z,40
2016-04-17T12:47:57.009Z,40
2016-04-17T12:48:57.074Z,36
2016-04-17T12:49:57.077Z,24
2016-04-17T12:50:57.125Z,32
2016-04-17T12:51:58.691Z,32
2016-04-17T12:52:57.163Z,44
2016-04-17T12:53:58.790Z,48
2016-04-17T12:54:57.230Z,36
2016-04-17T12:55:57.233Z,40
2016-04-17T12:56:57.485Z,32
2016-04-17T12:57:57.285Z,28
2016-04-17T12:58:59.038Z,28
2016-04-17T12:59:57.369Z,28
2016-04-17T13:00:57.357Z,32
2016-04-17T13:01:57.391Z,20
2016-04-17T13:02:57.424Z,28
2016-04-17T13:03:57.474Z,28
2016-04-17T13:04:57.524Z,28
2016-04-17T13:05:57.510Z,24
2016-04-17T13:06:57.528Z,28
2016-04-17T13:07:57.593Z,28
2016-04-17T13:08:57.628Z,32
2016-04-17T13:09:57.646Z,32
2016-04-17T13:10:57.664Z,24
2016-04-17T13:11:57.776Z,28
2016-04-17T13:12:57.685Z,28
2016-04-17T13:13:57.751Z,28
2016-04-17T13:14:57.753Z,20
2016-04-17T13:15:57.787Z,16
2016-04-17T13:16:57.806Z,12
2016-04-17T13:17:57.839Z,12
2016-04-17T13:18:57.889Z,8
2016-04-17T13:19:57.908Z,12
2016-04-17T13:20:57.925Z,12
2016-04-17T13:21:58.006Z,16
2016-04-17T13:22:57.978Z,24
2016-04-17T13:23:58.011Z,20
2016-04-17T13:24:58.030Z,20
2016-04-17T13:25:58.063Z,20
2016-04-17T13:26:58.285Z,20
2016-04-17T13:27:58.132Z,20
2016-04-17T13:28:58.166Z,16
2016-04-17T13:29:58.184Z,8
2016-04-17T13:30:58.233Z,8
2016-04-17T13:31:58.252Z,12
2016-04-17T13:32:58.286Z,8
2016-04-17T13:33:58.335Z,12
2016-04-17T13:34:58.323Z,8
2016-04-17T13:35:58.357Z,8
2016-04-17T13:36:58.359Z,8
2016-04-17T13:37:58.377Z,12
2016-04-17T13:38:58.443Z,16
2016-04-17T13:39:58.446Z,20
2016-04-17T13:40:58.323Z,20
2016-04-17T13:41:58.388Z,16
2016-04-17T13:42:58.516Z,12
2016-04-17T13:43:58.581Z,12
2016-04-17T13:44:58.568Z,12
2016-04-17T13:45:58.603Z,12
2016-04-17T13:46:58.651Z,12
2016-04-17T13:47:58.686Z,20
2016-04-17T13:48:58.720Z,12
2016-04-17T13:49:58.722Z,12
2016-04-17T13:50:58.756Z,16
2016-04-17T13:51:58.790Z,8
2016-04-17T13:52:58.808Z,8
2016-04-17T13:53:58.858Z,8
2016-04-17T13:54:58.861Z,12
2016-04-17T13:55:59.442Z,12
2016-04-17T13:56:58.944Z,8
2016-04-17T13:57:58.963Z,12
2016-04-17T13:58:58.997Z,8
2016-04-17T13:59:58.999Z,8
2016-04-17T14:00:58.877Z,12
2016-04-17T14:01:59.099Z,8
2016-04-17T14:02:59.101Z,12
2016-04-17T14:03:59.104Z,12
2016-04-17T14:04:59.137Z,8
2016-04-17T14:05:59.171Z,4
2016-04-17T14:06:59.049Z,8
2016-04-17T14:07:59.254Z,8
2016-04-17T14:08:59.257Z,12
2016-04-17T14:09:59.307Z,12
2016-04-17T14:10:59.309Z,12
2016-04-17T14:11:59.390Z,8
2016-04-17T14:12:59.346Z,8
2016-04-17T14:13:59.381Z,4
2016-04-17T14:14:59.398Z,4
2016-04-17T14:15:59.448Z,8
2016-04-17T14:16:59.467Z,4
2016-04-17T14:17:59.547Z,4
2016-04-17T14:18:59.519Z,8
2016-04-17T14:19:59.537Z,12
2016-04-17T14:20:59.602Z,8
2016-04-17T14:21:59.621Z,12
2016-04-17T14:22:59.671Z,12
2016-04-17T14:23:59.689Z,8
2016-04-17T14:24:59.661Z,8
2016-04-17T14:25:59.711Z,12
2016-04-17T14:26:59.713Z,12
2016-04-17T14:27:59.762Z,12
2016-04-17T14:28:59.781Z,8
2016-04-17T14:29:59.815Z,12
2016-04-17T14:30:59.849Z,8
2016-04-17T14:31:59.898Z,8
2016-04-17T14:32:59.917Z,8
2016-04-17T14:33:59.950Z,8
2016-04-17T14:34:59.953Z,4